Startpagina
METAR-TAF:

METAR-TAF

Vliegvelden :

Luchthaven Sjeremetjevo

Moskou-Sjeremetjevo, Rusland

breedte: 55-58N, lengte: 037-25E, hoogte: 190 m

Actueel weer

Dit bericht is 15 minuten geleden gemaakt, om 09:00 UTC
Wind 10 kt uit het noordnoordwesten
Temperatuur 7°C
Vochtigheid 76%
Druk 1021 hPa
Zicht 10 km of meer
Gebroken wolken op 2000 ft

METAR: UUEE 200900Z 33005MPS 9999 BKN020 07/03 Q1021 R24L/CLRD62 R24C/CLRD62 NOSIG

Tijdstip: 12:15 (09:15 UTC)

Verwachting

Dit bericht is 1 uur en het 25 minuten geleden gemaakt, om 07:50 UTC
Verwachting geldig van 20 om 09 UTC tot 21 om 09 UTC
Wind 12 kt uit het noordwesten
Zicht 10 km of meer
Gebroken wolken op 2000 ft
Van 20 om 1700 UTC
Wind 2 kt uit variabele richting
Zicht: 4000 m
Gebroken wolken op 1100 ft
nevel

TAF: UUEE 200750Z 2009/2109 32006MPS 9999 BKN020 TX10/2012Z TN01/2103Z FM201700 VRB01MPS 4000 BR BKN011

Waarnemingen en weersverwachtingen van meer dan 4000 vliegvelden (METAR en TAF).

De beschikbare stations zijn de gele en rode punten op de kaart.

Ga met uw muis naar het station om de naam te zien.

Klik dan om waarnemingen en weersverwachtingen te zien.

kaart wijzigen: klik op de groene knoppen met een zwart kruis om in te zoomen, op de groene knop met een streepje om uit te zoomen of op de groene pijlen voor aangrenzende kaarten.


METAR-TAF: